sensor_id;sensor_type;location;lat;lon;timestamp;P1;durP1;ratioP1;P2;durP2;ratioP2
10473;SDS011;5284;50.446;7.904;2023-05-10T00:03:08;6.13;;;4.60;;
10473;SDS011;5284;50.446;7.904;2023-05-10T00:08:12;7.43;;;4.38;;
10473;SDS011;5284;50.446;7.904;2023-05-10T00:13:14;2.63;;;2.15;;
10473;SDS011;5284;50.446;7.904;2023-05-10T00:18:17;2.45;;;1.83;;
10473;SDS011;5284;50.446;7.904;2023-05-10T00:23:22;1.52;;;0.93;;
10473;SDS011;5284;50.446;7.904;2023-05-10T00:28:24;1.80;;;0.60;;
10473;SDS011;5284;50.446;7.904;2023-05-10T00:33:30;0.93;;;0.60;;
10473;SDS011;5284;50.446;7.904;2023-05-10T00:38:34;2.67;;;0.60;;
10473;SDS011;5284;50.446;7.904;2023-05-10T00:43:37;1.10;;;0.65;;
10473;SDS011;5284;50.446;7.904;2023-05-10T00:48:40;0.65;;;0.50;;
10473;SDS011;5284;50.446;7.904;2023-05-10T00:53:44;3.80;;;0.63;;
10473;SDS011;5284;50.446;7.904;2023-05-10T00:58:48;0.40;;;0.40;;
10473;SDS011;5284;50.446;7.904;2023-05-10T01:03:51;2.72;;;0.60;;
10473;SDS011;5284;50.446;7.904;2023-05-10T01:08:56;1.17;;;0.60;;
10473;SDS011;5284;50.446;7.904;2023-05-10T01:13:58;1.20;;;0.60;;
10473;SDS011;5284;50.446;7.904;2023-05-10T01:19:01;0.88;;;0.50;;
10473;SDS011;5284;50.446;7.904;2023-05-10T01:24:23;0.70;;;0.50;;
10473;SDS011;5284;50.446;7.904;2023-05-10T01:35:18;4.20;;;0.50;;
10473;SDS011;5284;50.446;7.904;2023-05-10T01:40:30;1.63;;;0.75;;
10473;SDS011;5284;50.446;7.904;2023-05-10T01:45:39;0.55;;;0.55;;
10473;SDS011;5284;50.446;7.904;2023-05-10T01:50:49;2.08;;;0.85;;
10473;SDS011;5284;50.446;7.904;2023-05-10T01:55:53;0.98;;;0.60;;
10473;SDS011;5284;50.446;7.904;2023-05-10T02:00:59;2.97;;;0.60;;
10473;SDS011;5284;50.446;7.904;2023-05-10T02:06:06;4.43;;;0.88;;
10473;SDS011;5284;50.446;7.904;2023-05-10T02:11:11;2.20;;;0.93;;
10473;SDS011;5284;50.446;7.904;2023-05-10T02:16:15;4.13;;;0.77;;
10473;SDS011;5284;50.446;7.904;2023-05-10T02:21:22;3.28;;;0.80;;
10473;SDS011;5284;50.446;7.904;2023-05-10T02:26:26;2.38;;;0.82;;
10473;SDS011;5284;50.446;7.904;2023-05-10T02:31:30;1.58;;;0.85;;
10473;SDS011;5284;50.446;7.904;2023-05-10T02:36:35;0.65;;;0.65;;
10473;SDS011;5284;50.446;7.904;2023-05-10T02:41:40;1.30;;;0.73;;
10473;SDS011;5284;50.446;7.904;2023-05-10T02:46:44;3.80;;;0.65;;
10473;SDS011;5284;50.446;7.904;2023-05-10T02:51:50;2.67;;;0.77;;
10473;SDS011;5284;50.446;7.904;2023-05-10T02:56:57;2.45;;;0.90;;
10473;SDS011;5284;50.446;7.904;2023-05-10T03:02:01;1.77;;;0.80;;
10473;SDS011;5284;50.446;7.904;2023-05-10T03:07:07;4.60;;;0.80;;
10473;SDS011;5284;50.446;7.904;2023-05-10T03:12:11;0.82;;;0.47;;
10473;SDS011;5284;50.446;7.904;2023-05-10T03:17:22;3.67;;;0.90;;
10473;SDS011;5284;50.446;7.904;2023-05-10T03:22:34;8.98;;;0.82;;
10473;SDS011;5284;50.446;7.904;2023-05-10T03:27:41;4.82;;;0.90;;
10473;SDS011;5284;50.446;7.904;2023-05-10T03:32:46;0.93;;;0.82;;
10473;SDS011;5284;50.446;7.904;2023-05-10T03:37:52;1.20;;;1.05;;
10473;SDS011;5284;50.446;7.904;2023-05-10T03:42:55;0.60;;;0.60;;
10473;SDS011;5284;50.446;7.904;2023-05-10T03:47:58;0.88;;;0.63;;
10473;SDS011;5284;50.446;7.904;2023-05-10T03:53:02;1.45;;;0.50;;
10473;SDS011;5284;50.446;7.904;2023-05-10T03:58:06;0.88;;;0.50;;
10473;SDS011;5284;50.446;7.904;2023-05-10T04:03:13;3.73;;;0.50;;
10473;SDS011;5284;50.446;7.904;2023-05-10T04:08:18;1.67;;;0.57;;
10473;SDS011;5284;50.446;7.904;2023-05-10T04:26:47;3.65;;;1.25;;
10473;SDS011;5284;50.446;7.904;2023-05-10T04:31:49;4.10;;;2.30;;
10473;SDS011;5284;50.446;7.904;2023-05-10T04:36:53;7.78;;;4.20;;
10473;SDS011;5284;50.446;7.904;2023-05-10T04:41:57;6.57;;;3.08;;
10473;SDS011;5284;50.446;7.904;2023-05-10T04:47:00;3.72;;;2.03;;
10473;SDS011;5284;50.446;7.904;2023-05-10T04:52:03;4.05;;;1.20;;
10473;SDS011;5284;50.446;7.904;2023-05-10T04:57:08;2.83;;;1.10;;
10473;SDS011;5284;50.446;7.904;2023-05-10T05:02:13;3.97;;;0.85;;
10473;SDS011;5284;50.446;7.904;2023-05-10T05:07:16;4.20;;;1.08;;
10473;SDS011;5284;50.446;7.904;2023-05-10T05:12:23;1.42;;;0.93;;
10473;SDS011;5284;50.446;7.904;2023-05-10T05:17:26;1.55;;;0.98;;
10473;SDS011;5284;50.446;7.904;2023-05-10T05:22:29;1.98;;;0.88;;
10473;SDS011;5284;50.446;7.904;2023-05-10T05:27:34;1.90;;;1.13;;
10473;SDS011;5284;50.446;7.904;2023-05-10T05:32:37;1.35;;;1.05;;
10473;SDS011;5284;50.446;7.904;2023-05-10T05:37:40;1.27;;;1.10;;
10473;SDS011;5284;50.446;7.904;2023-05-10T05:42:44;5.18;;;1.20;;
10473;SDS011;5284;50.446;7.904;2023-05-10T05:47:47;1.55;;;0.90;;
10473;SDS011;5284;50.446;7.904;2023-05-10T05:52:51;3.90;;;1.60;;
10473;SDS011;5284;50.446;7.904;2023-05-10T05:57:56;2.13;;;1.40;;
10473;SDS011;5284;50.446;7.904;2023-05-10T06:02:59;2.60;;;1.80;;
10473;SDS011;5284;50.446;7.904;2023-05-10T06:08:03;2.72;;;1.70;;
10473;SDS011;5284;50.446;7.904;2023-05-10T06:13:07;3.85;;;2.15;;
10473;SDS011;5284;50.446;7.904;2023-05-10T06:18:12;2.60;;;2.30;;
10473;SDS011;5284;50.446;7.904;2023-05-10T06:23:17;3.45;;;1.80;;
10473;SDS011;5284;50.446;7.904;2023-05-10T06:28:25;3.33;;;1.63;;
10473;SDS011;5284;50.446;7.904;2023-05-10T06:33:28;3.17;;;1.63;;
10473;SDS011;5284;50.446;7.904;2023-05-10T06:38:35;3.03;;;1.40;;
10473;SDS011;5284;50.446;7.904;2023-05-10T06:43:39;3.42;;;1.65;;
10473;SDS011;5284;50.446;7.904;2023-05-10T06:48:42;3.08;;;1.40;;
10473;SDS011;5284;50.446;7.904;2023-05-10T06:53:46;1.52;;;1.35;;
10473;SDS011;5284;50.446;7.904;2023-05-10T06:58:50;13.93;;;2.05;;
10473;SDS011;5284;50.446;7.904;2023-05-10T07:03:53;3.55;;;1.88;;
10473;SDS011;5284;50.446;7.904;2023-05-10T07:08:55;3.03;;;2.15;;
10473;SDS011;5284;50.446;7.904;2023-05-10T07:14:02;2.75;;;1.50;;
10473;SDS011;5284;50.446;7.904;2023-05-10T07:19:05;5.68;;;1.80;;
10473;SDS011;5284;50.446;7.904;2023-05-10T07:24:09;7.05;;;2.15;;
10473;SDS011;5284;50.446;7.904;2023-05-10T07:29:14;8.38;;;1.90;;
10473;SDS011;5284;50.446;7.904;2023-05-10T07:34:16;3.25;;;1.83;;
10473;SDS011;5284;50.446;7.904;2023-05-10T07:39:20;7.47;;;1.52;;
10473;SDS011;5284;50.446;7.904;2023-05-10T07:44:30;4.82;;;2.13;;
10473;SDS011;5284;50.446;7.904;2023-05-10T07:49:33;5.38;;;1.85;;
10473;SDS011;5284;50.446;7.904;2023-05-10T07:54:39;6.75;;;2.47;;
10473;SDS011;5284;50.446;7.904;2023-05-10T07:59:43;9.48;;;2.28;;
10473;SDS011;5284;50.446;7.904;2023-05-10T08:04:49;3.47;;;2.08;;
10473;SDS011;5284;50.446;7.904;2023-05-10T08:09:52;4.38;;;2.22;;
10473;SDS011;5284;50.446;7.904;2023-05-10T08:14:56;8.73;;;2.67;;
10473;SDS011;5284;50.446;7.904;2023-05-10T08:19:59;5.20;;;2.92;;
10473;SDS011;5284;50.446;7.904;2023-05-10T08:25:04;4.45;;;2.58;;
10473;SDS011;5284;50.446;7.904;2023-05-10T08:30:09;10.70;;;2.65;;
10473;SDS011;5284;50.446;7.904;2023-05-10T08:35:13;6.82;;;2.58;;
10473;SDS011;5284;50.446;7.904;2023-05-10T08:40:19;8.88;;;2.85;;
10473;SDS011;5284;50.446;7.904;2023-05-10T08:45:24;7.88;;;2.78;;
10473;SDS011;5284;50.446;7.904;2023-05-10T08:50:28;10.38;;;3.03;;
10473;SDS011;5284;50.446;7.904;2023-05-10T08:55:32;7.95;;;2.13;;
10473;SDS011;5284;50.446;7.904;2023-05-10T09:00:41;10.70;;;2.88;;
10473;SDS011;5284;50.446;7.904;2023-05-10T09:05:45;5.70;;;2.28;;
10473;SDS011;5284;50.446;7.904;2023-05-10T09:10:51;5.85;;;2.13;;
10473;SDS011;5284;50.446;7.904;2023-05-10T09:15:55;7.20;;;2.00;;
10473;SDS011;5284;50.446;7.904;2023-05-10T09:21:09;5.25;;;1.45;;
10473;SDS011;5284;50.446;7.904;2023-05-10T09:26:14;6.50;;;1.85;;
10473;SDS011;5284;50.446;7.904;2023-05-10T09:31:18;5.13;;;2.33;;
10473;SDS011;5284;50.446;7.904;2023-05-10T09:36:22;3.20;;;1.42;;
10473;SDS011;5284;50.446;7.904;2023-05-10T09:41:27;6.97;;;2.00;;
10473;SDS011;5284;50.446;7.904;2023-05-10T09:46:35;4.60;;;1.42;;
10473;SDS011;5284;50.446;7.904;2023-05-10T09:51:41;6.85;;;2.22;;
10473;SDS011;5284;50.446;7.904;2023-05-10T09:56:44;9.30;;;1.70;;
10473;SDS011;5284;50.446;7.904;2023-05-10T10:01:50;2.65;;;1.10;;
10473;SDS011;5284;50.446;7.904;2023-05-10T10:07:00;3.40;;;1.10;;
10473;SDS011;5284;50.446;7.904;2023-05-10T10:12:06;2.60;;;1.08;;
10473;SDS011;5284;50.446;7.904;2023-05-10T10:17:12;12.45;;;0.95;;
10473;SDS011;5284;50.446;7.904;2023-05-10T10:22:15;5.85;;;1.10;;
10473;SDS011;5284;50.446;7.904;2023-05-10T10:27:20;1.80;;;0.77;;
10473;SDS011;5284;50.446;7.904;2023-05-10T10:32:33;6.75;;;0.60;;
10473;SDS011;5284;50.446;7.904;2023-05-10T10:37:47;1.77;;;0.70;;
10473;SDS011;5284;50.446;7.904;2023-05-10T10:42:54;1.73;;;1.05;;
10473;SDS011;5284;50.446;7.904;2023-05-10T10:53:26;8.35;;;0.73;;
10473;SDS011;5284;50.446;7.904;2023-05-10T10:58:30;1.67;;;0.70;;
10473;SDS011;5284;50.446;7.904;2023-05-10T11:03:37;2.97;;;0.68;;
10473;SDS011;5284;50.446;7.904;2023-05-10T11:08:41;2.17;;;0.80;;
10473;SDS011;5284;50.446;7.904;2023-05-10T11:13:49;1.50;;;0.68;;
10473;SDS011;5284;50.446;7.904;2023-05-10T11:19:01;2.90;;;0.50;;
10473;SDS011;5284;50.446;7.904;2023-05-10T11:24:12;2.28;;;0.50;;
10473;SDS011;5284;50.446;7.904;2023-05-10T11:29:17;2.47;;;0.95;;
10473;SDS011;5284;50.446;7.904;2023-05-10T11:34:26;3.95;;;0.40;;
10473;SDS011;5284;50.446;7.904;2023-05-10T11:39:32;2.60;;;0.40;;
10473;SDS011;5284;50.446;7.904;2023-05-10T11:44:36;0.43;;;0.43;;
10473;SDS011;5284;50.446;7.904;2023-05-10T11:49:44;1.52;;;0.65;;
10473;SDS011;5284;50.446;7.904;2023-05-10T11:54:50;3.17;;;1.10;;
10473;SDS011;5284;50.446;7.904;2023-05-10T11:59:54;6.93;;;0.60;;
10473;SDS011;5284;50.446;7.904;2023-05-10T12:05:00;1.17;;;0.82;;
10473;SDS011;5284;50.446;7.904;2023-05-10T12:10:06;3.42;;;0.75;;
10473;SDS011;5284;50.446;7.904;2023-05-10T12:15:16;0.52;;;0.40;;
10473;SDS011;5284;50.446;7.904;2023-05-10T12:20:26;0.65;;;0.47;;
10473;SDS011;5284;50.446;7.904;2023-05-10T12:25:31;1.42;;;0.55;;
10473;SDS011;5284;50.446;7.904;2023-05-10T12:30:37;1.52;;;0.77;;
10473;SDS011;5284;50.446;7.904;2023-05-10T12:35:47;3.88;;;0.80;;
10473;SDS011;5284;50.446;7.904;2023-05-10T12:40:55;1.73;;;0.80;;
10473;SDS011;5284;50.446;7.904;2023-05-10T12:45:58;1.23;;;0.80;;
10473;SDS011;5284;50.446;7.904;2023-05-10T12:51:03;6.78;;;0.82;;
10473;SDS011;5284;50.446;7.904;2023-05-10T12:56:06;2.40;;;0.57;;
10473;SDS011;5284;50.446;7.904;2023-05-10T13:01:10;6.15;;;0.50;;
10473;SDS011;5284;50.446;7.904;2023-05-10T13:06:17;1.67;;;0.60;;
10473;SDS011;5284;50.446;7.904;2023-05-10T13:11:22;4.22;;;0.60;;
10473;SDS011;5284;50.446;7.904;2023-05-10T13:16:25;11.55;;;0.70;;
10473;SDS011;5284;50.446;7.904;2023-05-10T13:21:31;1.27;;;0.80;;
10473;SDS011;5284;50.446;7.904;2023-05-10T13:26:35;3.60;;;0.68;;
10473;SDS011;5284;50.446;7.904;2023-05-10T13:31:41;1.40;;;0.73;;
10473;SDS011;5284;50.446;7.904;2023-05-10T13:36:45;1.30;;;0.60;;
10473;SDS011;5284;50.446;7.904;2023-05-10T13:41:48;2.30;;;0.60;;
10473;SDS011;5284;50.446;7.904;2023-05-10T13:46:53;2.13;;;0.70;;
10473;SDS011;5284;50.446;7.904;2023-05-10T13:51:57;2.33;;;1.33;;
10473;SDS011;5284;50.446;7.904;2023-05-10T13:57:00;5.63;;;1.88;;
10473;SDS011;5284;50.446;7.904;2023-05-10T14:02:04;6.47;;;1.52;;
10473;SDS011;5284;50.446;7.904;2023-05-10T14:07:10;2.47;;;1.67;;
10473;SDS011;5284;50.446;7.904;2023-05-10T14:12:13;3.65;;;2.00;;
10473;SDS011;5284;50.446;7.904;2023-05-10T14:17:19;7.90;;;5.32;;
10473;SDS011;5284;50.446;7.904;2023-05-10T14:22:24;7.22;;;2.22;;
10473;SDS011;5284;50.446;7.904;2023-05-10T14:27:28;3.30;;;2.50;;
10473;SDS011;5284;50.446;7.904;2023-05-10T14:32:31;2.58;;;1.50;;
10473;SDS011;5284;50.446;7.904;2023-05-10T14:37:36;3.70;;;1.45;;
10473;SDS011;5284;50.446;7.904;2023-05-10T14:42:41;4.53;;;1.70;;
10473;SDS011;5284;50.446;7.904;2023-05-10T14:47:45;2.75;;;1.08;;
10473;SDS011;5284;50.446;7.904;2023-05-10T14:52:49;2.65;;;1.25;;
10473;SDS011;5284;50.446;7.904;2023-05-10T14:57:52;4.32;;;0.95;;
10473;SDS011;5284;50.446;7.904;2023-05-10T15:02:55;9.65;;;1.30;;
10473;SDS011;5284;50.446;7.904;2023-05-10T15:08:01;3.75;;;1.10;;
10473;SDS011;5284;50.446;7.904;2023-05-10T15:13:05;4.15;;;1.13;;
10473;SDS011;5284;50.446;7.904;2023-05-10T15:18:08;1.55;;;0.68;;
10473;SDS011;5284;50.446;7.904;2023-05-10T15:23:13;0.93;;;0.77;;
10473;SDS011;5284;50.446;7.904;2023-05-10T15:28:16;2.22;;;0.80;;
10473;SDS011;5284;50.446;7.904;2023-05-10T15:33:20;1.35;;;0.63;;
10473;SDS011;5284;50.446;7.904;2023-05-10T15:38:26;6.18;;;1.00;;
10473;SDS011;5284;50.446;7.904;2023-05-10T15:43:30;5.78;;;0.77;;
10473;SDS011;5284;50.446;7.904;2023-05-10T15:48:34;2.45;;;1.00;;
10473;SDS011;5284;50.446;7.904;2023-05-10T15:53:38;2.00;;;0.98;;
10473;SDS011;5284;50.446;7.904;2023-05-10T15:59:01;1.98;;;0.57;;
10473;SDS011;5284;50.446;7.904;2023-05-10T16:04:04;7.22;;;1.20;;
10473;SDS011;5284;50.446;7.904;2023-05-10T16:09:08;3.92;;;0.82;;
10473;SDS011;5284;50.446;7.904;2023-05-10T16:14:11;5.38;;;0.85;;
10473;SDS011;5284;50.446;7.904;2023-05-10T16:19:14;3.20;;;0.45;;
10473;SDS011;5284;50.446;7.904;2023-05-10T16:24:19;6.82;;;1.00;;
10473;SDS011;5284;50.446;7.904;2023-05-10T16:29:22;3.45;;;0.40;;
10473;SDS011;5284;50.446;7.904;2023-05-10T16:34:25;2.45;;;0.95;;
10473;SDS011;5284;50.446;7.904;2023-05-10T16:39:29;0.35;;;0.35;;
10473;SDS011;5284;50.446;7.904;2023-05-10T16:44:32;0.88;;;0.50;;
10473;SDS011;5284;50.446;7.904;2023-05-10T16:49:36;0.47;;;0.45;;
10473;SDS011;5284;50.446;7.904;2023-05-10T16:54:41;1.65;;;0.50;;
10473;SDS011;5284;50.446;7.904;2023-05-10T16:59:46;2.27;;;0.57;;
10473;SDS011;5284;50.446;7.904;2023-05-10T17:04:51;6.22;;;0.38;;
10473;SDS011;5284;50.446;7.904;2023-05-10T17:09:57;3.92;;;1.10;;
10473;SDS011;5284;50.446;7.904;2023-05-10T17:15:00;1.45;;;0.90;;
10473;SDS011;5284;50.446;7.904;2023-05-10T17:20:06;4.47;;;2.03;;
10473;SDS011;5284;50.446;7.904;2023-05-10T17:25:12;14.03;;;0.50;;
10473;SDS011;5284;50.446;7.904;2023-05-10T17:30:16;0.93;;;0.40;;
10473;SDS011;5284;50.446;7.904;2023-05-10T17:35:24;0.35;;;0.30;;
10473;SDS011;5284;50.446;7.904;2023-05-10T17:40:28;1.55;;;0.40;;
10473;SDS011;5284;50.446;7.904;2023-05-10T17:45:31;4.43;;;0.65;;
10473;SDS011;5284;50.446;7.904;2023-05-10T17:50:34;4.22;;;0.60;;
10473;SDS011;5284;50.446;7.904;2023-05-10T17:55:41;1.80;;;0.80;;
10473;SDS011;5284;50.446;7.904;2023-05-10T18:00:45;1.27;;;0.80;;
10473;SDS011;5284;50.446;7.904;2023-05-10T18:05:48;0.40;;;0.40;;
10473;SDS011;5284;50.446;7.904;2023-05-10T18:10:53;3.28;;;0.40;;
10473;SDS011;5284;50.446;7.904;2023-05-10T18:15:56;3.40;;;0.47;;
10473;SDS011;5284;50.446;7.904;2023-05-10T18:21:06;0.88;;;0.40;;
10473;SDS011;5284;50.446;7.904;2023-05-10T18:26:10;1.95;;;0.70;;
10473;SDS011;5284;50.446;7.904;2023-05-10T18:31:13;1.42;;;0.70;;
10473;SDS011;5284;50.446;7.904;2023-05-10T18:36:16;1.45;;;0.55;;
10473;SDS011;5284;50.446;7.904;2023-05-10T18:41:24;1.67;;;0.35;;
10473;SDS011;5284;50.446;7.904;2023-05-10T18:46:32;3.00;;;0.63;;
10473;SDS011;5284;50.446;7.904;2023-05-10T18:51:36;2.80;;;0.70;;
10473;SDS011;5284;50.446;7.904;2023-05-10T18:56:40;1.00;;;0.73;;
10473;SDS011;5284;50.446;7.904;2023-05-10T19:01:45;3.05;;;0.82;;
10473;SDS011;5284;50.446;7.904;2023-05-10T19:06:51;2.78;;;0.73;;
10473;SDS011;5284;50.446;7.904;2023-05-10T19:11:55;3.60;;;1.15;;
10473;SDS011;5284;50.446;7.904;2023-05-10T19:16:59;2.03;;;0.77;;
10473;SDS011;5284;50.446;7.904;2023-05-10T19:22:01;1.83;;;0.75;;
10473;SDS011;5284;50.446;7.904;2023-05-10T19:27:06;4.70;;;1.00;;
10473;SDS011;5284;50.446;7.904;2023-05-10T19:32:09;2.08;;;1.05;;
10473;SDS011;5284;50.446;7.904;2023-05-10T19:37:12;4.75;;;0.88;;
10473;SDS011;5284;50.446;7.904;2023-05-10T19:42:17;4.30;;;1.48;;
10473;SDS011;5284;50.446;7.904;2023-05-10T19:47:20;3.85;;;0.80;;
10473;SDS011;5284;50.446;7.904;2023-05-10T19:52:23;0.88;;;0.77;;
10473;SDS011;5284;50.446;7.904;2023-05-10T19:57:28;7.50;;;1.23;;
10473;SDS011;5284;50.446;7.904;2023-05-10T20:02:32;3.40;;;1.38;;
10473;SDS011;5284;50.446;7.904;2023-05-10T20:07:40;2.65;;;1.30;;
10473;SDS011;5284;50.446;7.904;2023-05-10T20:12:47;3.35;;;1.15;;
10473;SDS011;5284;50.446;7.904;2023-05-10T20:17:51;4.60;;;1.30;;
10473;SDS011;5284;50.446;7.904;2023-05-10T20:22:54;11.65;;;1.38;;
10473;SDS011;5284;50.446;7.904;2023-05-10T20:28:00;10.90;;;1.60;;
10473;SDS011;5284;50.446;7.904;2023-05-10T20:33:04;5.63;;;1.42;;
10473;SDS011;5284;50.446;7.904;2023-05-10T20:38:07;27.00;;;9.63;;
10473;SDS011;5284;50.446;7.904;2023-05-10T20:43:12;24.35;;;7.53;;
10473;SDS011;5284;50.446;7.904;2023-05-10T20:48:15;8.50;;;3.03;;
10473;SDS011;5284;50.446;7.904;2023-05-10T20:53:18;15.70;;;3.00;;
10473;SDS011;5284;50.446;7.904;2023-05-10T20:58:24;9.73;;;2.50;;
10473;SDS011;5284;50.446;7.904;2023-05-10T21:03:28;5.60;;;1.75;;
10473;SDS011;5284;50.446;7.904;2023-05-10T21:08:31;2.50;;;1.42;;
10473;SDS011;5284;50.446;7.904;2023-05-10T21:13:36;2.22;;;1.40;;
10473;SDS011;5284;50.446;7.904;2023-05-10T21:18:39;4.97;;;1.45;;
10473;SDS011;5284;50.446;7.904;2023-05-10T21:23:44;5.95;;;1.38;;
10473;SDS011;5284;50.446;7.904;2023-05-10T21:28:49;4.85;;;1.77;;
10473;SDS011;5284;50.446;7.904;2023-05-10T21:33:51;7.15;;;2.47;;
10473;SDS011;5284;50.446;7.904;2023-05-10T21:38:54;11.85;;;2.63;;
10473;SDS011;5284;50.446;7.904;2023-05-10T21:43:58;4.10;;;2.38;;
10473;SDS011;5284;50.446;7.904;2023-05-10T21:49:01;3.90;;;2.15;;
10473;SDS011;5284;50.446;7.904;2023-05-10T21:54:04;11.32;;;2.20;;
10473;SDS011;5284;50.446;7.904;2023-05-10T21:59:09;8.10;;;2.40;;
10473;SDS011;5284;50.446;7.904;2023-05-10T22:04:20;11.23;;;3.33;;
10473;SDS011;5284;50.446;7.904;2023-05-10T22:09:23;14.75;;;3.22;;
10473;SDS011;5284;50.446;7.904;2023-05-10T22:14:27;11.65;;;3.05;;
10473;SDS011;5284;50.446;7.904;2023-05-10T22:19:30;7.03;;;3.85;;
10473;SDS011;5284;50.446;7.904;2023-05-10T22:24:33;6.55;;;2.28;;
10473;SDS011;5284;50.446;7.904;2023-05-10T22:29:37;3.53;;;2.38;;
10473;SDS011;5284;50.446;7.904;2023-05-10T22:34:40;13.43;;;2.53;;
10473;SDS011;5284;50.446;7.904;2023-05-10T22:39:43;10.77;;;2.15;;
10473;SDS011;5284;50.446;7.904;2023-05-10T22:44:48;5.07;;;1.85;;
10473;SDS011;5284;50.446;7.904;2023-05-10T22:49:50;3.58;;;2.33;;
10473;SDS011;5284;50.446;7.904;2023-05-10T22:54:55;9.20;;;2.15;;
10473;SDS011;5284;50.446;7.904;2023-05-10T22:59:59;6.72;;;2.10;;
10473;SDS011;5284;50.446;7.904;2023-05-10T23:05:04;6.13;;;1.80;;
10473;SDS011;5284;50.446;7.904;2023-05-10T23:10:08;6.00;;;1.90;;
10473;SDS011;5284;50.446;7.904;2023-05-10T23:15:13;10.77;;;2.30;;
10473;SDS011;5284;50.446;7.904;2023-05-10T23:20:16;4.53;;;2.90;;
10473;SDS011;5284;50.446;7.904;2023-05-10T23:25:20;11.05;;;2.72;;
10473;SDS011;5284;50.446;7.904;2023-05-10T23:30:24;12.32;;;3.42;;
10473;SDS011;5284;50.446;7.904;2023-05-10T23:35:27;18.10;;;6.57;;
10473;SDS011;5284;50.446;7.904;2023-05-10T23:40:30;18.85;;;9.18;;
10473;SDS011;5284;50.446;7.904;2023-05-10T23:45:34;21.42;;;9.25;;
10473;SDS011;5284;50.446;7.904;2023-05-10T23:50:37;20.65;;;9.13;;
10473;SDS011;5284;50.446;7.904;2023-05-10T23:55:45;19.35;;;7.47;;
